sensor_id;sensor_type;location;lat;lon;timestamp;P1;durP1;ratioP1;P2;durP2;ratioP2
78916;SDS011;68315;48.608;11.436;2023-05-24T00:01:38;3.35;;;3.05;;
78916;SDS011;68315;48.608;11.436;2023-05-24T00:04:06;5.65;;;4.38;;
78916;SDS011;68315;48.608;11.436;2023-05-24T00:06:32;3.90;;;3.50;;
78916;SDS011;68315;48.608;11.436;2023-05-24T00:09:01;4.30;;;3.90;;
78916;SDS011;68315;48.608;11.436;2023-05-24T00:11:27;4.43;;;3.83;;
78916;SDS011;68315;48.608;11.436;2023-05-24T00:13:52;4.00;;;3.67;;
78916;SDS011;68315;48.608;11.436;2023-05-24T00:16:17;3.78;;;3.30;;
78916;SDS011;68315;48.608;11.436;2023-05-24T00:18:43;3.83;;;3.40;;
78916;SDS011;68315;48.608;11.436;2023-05-24T00:21:10;4.13;;;3.72;;
78916;SDS011;68315;48.608;11.436;2023-05-24T00:23:36;4.25;;;3.45;;
78916;SDS011;68315;48.608;11.436;2023-05-24T00:26:02;3.30;;;3.00;;
78916;SDS011;68315;48.608;11.436;2023-05-24T00:28:28;3.63;;;3.22;;
78916;SDS011;68315;48.608;11.436;2023-05-24T00:30:55;5.68;;;3.88;;
78916;SDS011;68315;48.608;11.436;2023-05-24T00:33:23;5.55;;;5.05;;
78916;SDS011;68315;48.608;11.436;2023-05-24T00:35:49;4.65;;;3.70;;
78916;SDS011;68315;48.608;11.436;2023-05-24T00:38:23;4.88;;;4.30;;
78916;SDS011;68315;48.608;11.436;2023-05-24T00:40:49;5.30;;;4.38;;
78916;SDS011;68315;48.608;11.436;2023-05-24T00:43:15;5.30;;;4.80;;
78916;SDS011;68315;48.608;11.436;2023-05-24T00:45:41;5.97;;;4.57;;
78916;SDS011;68315;48.608;11.436;2023-05-24T00:48:06;5.50;;;3.67;;
78916;SDS011;68315;48.608;11.436;2023-05-24T00:50:33;5.00;;;4.20;;
78916;SDS011;68315;48.608;11.436;2023-05-24T00:52:59;6.93;;;4.47;;
78916;SDS011;68315;48.608;11.436;2023-05-24T00:55:27;5.00;;;4.50;;
78916;SDS011;68315;48.608;11.436;2023-05-24T00:57:53;5.85;;;4.43;;
78916;SDS011;68315;48.608;11.436;2023-05-24T01:00:20;5.80;;;4.95;;
78916;SDS011;68315;48.608;11.436;2023-05-24T01:02:45;6.20;;;5.18;;
78916;SDS011;68315;48.608;11.436;2023-05-24T01:05:12;4.45;;;3.92;;
78916;SDS011;68315;48.608;11.436;2023-05-24T01:10:20;7.28;;;4.15;;
78916;SDS011;68315;48.608;11.436;2023-05-24T01:13:04;3.88;;;3.47;;
78916;SDS011;68315;48.608;11.436;2023-05-24T01:18:25;5.60;;;4.47;;
78916;SDS011;68315;48.608;11.436;2023-05-24T01:20:58;7.40;;;5.28;;
78916;SDS011;68315;48.608;11.436;2023-05-24T01:29:00;6.05;;;5.43;;
78916;SDS011;68315;48.608;11.436;2023-05-24T01:31:27;5.55;;;4.40;;
78916;SDS011;68315;48.608;11.436;2023-05-24T01:33:52;5.20;;;4.63;;
78916;SDS011;68315;48.608;11.436;2023-05-24T01:36:17;5.05;;;4.43;;
78916;SDS011;68315;48.608;11.436;2023-05-24T01:38:43;5.97;;;3.78;;
78916;SDS011;68315;48.608;11.436;2023-05-24T01:41:14;5.75;;;4.60;;
78916;SDS011;68315;48.608;11.436;2023-05-24T01:43:51;5.18;;;4.50;;
78916;SDS011;68315;48.608;11.436;2023-05-24T01:46:35;5.43;;;4.10;;
78916;SDS011;68315;48.608;11.436;2023-05-24T01:49:19;5.28;;;3.72;;
78916;SDS011;68315;48.608;11.436;2023-05-24T01:51:48;7.10;;;3.67;;
78916;SDS011;68315;48.608;11.436;2023-05-24T01:54:19;4.78;;;3.80;;
78916;SDS011;68315;48.608;11.436;2023-05-24T01:56:47;6.78;;;4.20;;
78916;SDS011;68315;48.608;11.436;2023-05-24T01:59:13;6.60;;;3.95;;
78916;SDS011;68315;48.608;11.436;2023-05-24T02:01:39;8.15;;;4.60;;
78916;SDS011;68315;48.608;11.436;2023-05-24T02:04:05;5.80;;;4.30;;
78916;SDS011;68315;48.608;11.436;2023-05-24T02:06:31;4.43;;;3.90;;
78916;SDS011;68315;48.608;11.436;2023-05-24T02:08:56;5.70;;;4.03;;
78916;SDS011;68315;48.608;11.436;2023-05-24T02:11:21;5.95;;;4.45;;
78916;SDS011;68315;48.608;11.436;2023-05-24T02:13:46;5.82;;;4.10;;
78916;SDS011;68315;48.608;11.436;2023-05-24T02:16:12;4.20;;;3.80;;
78916;SDS011;68315;48.608;11.436;2023-05-24T02:18:37;6.38;;;4.07;;
78916;SDS011;68315;48.608;11.436;2023-05-24T02:21:02;6.35;;;4.70;;
78916;SDS011;68315;48.608;11.436;2023-05-24T02:23:28;7.53;;;3.90;;
78916;SDS011;68315;48.608;11.436;2023-05-24T02:25:54;4.97;;;3.70;;
78916;SDS011;68315;48.608;11.436;2023-05-24T02:28:19;5.60;;;4.50;;
78916;SDS011;68315;48.608;11.436;2023-05-24T02:30:45;5.18;;;4.13;;
78916;SDS011;68315;48.608;11.436;2023-05-24T02:33:10;6.53;;;4.28;;
78916;SDS011;68315;48.608;11.436;2023-05-24T02:35:36;6.38;;;4.55;;
78916;SDS011;68315;48.608;11.436;2023-05-24T02:38:01;5.40;;;4.07;;
78916;SDS011;68315;48.608;11.436;2023-05-24T02:40:30;5.63;;;4.45;;
78916;SDS011;68315;48.608;11.436;2023-05-24T02:42:56;4.85;;;4.15;;
78916;SDS011;68315;48.608;11.436;2023-05-24T02:45:21;6.53;;;3.72;;
78916;SDS011;68315;48.608;11.436;2023-05-24T02:47:46;5.13;;;3.70;;
78916;SDS011;68315;48.608;11.436;2023-05-24T02:50:12;5.82;;;4.32;;
78916;SDS011;68315;48.608;11.436;2023-05-24T02:52:37;5.13;;;3.95;;
78916;SDS011;68315;48.608;11.436;2023-05-24T02:55:02;5.32;;;4.68;;
78916;SDS011;68315;48.608;11.436;2023-05-24T02:57:28;6.47;;;3.70;;
78916;SDS011;68315;48.608;11.436;2023-05-24T02:59:53;4.78;;;4.15;;
78916;SDS011;68315;48.608;11.436;2023-05-24T03:02:19;6.43;;;4.00;;
78916;SDS011;68315;48.608;11.436;2023-05-24T03:04:45;7.38;;;3.88;;
78916;SDS011;68315;48.608;11.436;2023-05-24T03:07:11;5.63;;;4.15;;
78916;SDS011;68315;48.608;11.436;2023-05-24T03:09:38;6.10;;;4.00;;
78916;SDS011;68315;48.608;11.436;2023-05-24T03:12:06;5.80;;;4.30;;
78916;SDS011;68315;48.608;11.436;2023-05-24T03:14:31;6.00;;;4.30;;
78916;SDS011;68315;48.608;11.436;2023-05-24T03:16:57;6.50;;;4.18;;
78916;SDS011;68315;48.608;11.436;2023-05-24T03:19:22;5.15;;;4.10;;
78916;SDS011;68315;48.608;11.436;2023-05-24T03:21:47;5.35;;;4.43;;
78916;SDS011;68315;48.608;11.436;2023-05-24T03:24:12;5.18;;;4.65;;
78916;SDS011;68315;48.608;11.436;2023-05-24T03:26:39;7.63;;;4.50;;
78916;SDS011;68315;48.608;11.436;2023-05-24T03:29:04;7.00;;;4.40;;
78916;SDS011;68315;48.608;11.436;2023-05-24T03:31:29;5.47;;;4.30;;
78916;SDS011;68315;48.608;11.436;2023-05-24T03:33:55;7.47;;;4.65;;
78916;SDS011;68315;48.608;11.436;2023-05-24T03:36:20;6.97;;;5.05;;
78916;SDS011;68315;48.608;11.436;2023-05-24T03:38:45;7.03;;;4.75;;
78916;SDS011;68315;48.608;11.436;2023-05-24T03:41:11;4.72;;;4.28;;
78916;SDS011;68315;48.608;11.436;2023-05-24T03:43:36;8.30;;;5.00;;
78916;SDS011;68315;48.608;11.436;2023-05-24T03:46:01;6.40;;;5.25;;
78916;SDS011;68315;48.608;11.436;2023-05-24T03:48:26;7.20;;;4.78;;
78916;SDS011;68315;48.608;11.436;2023-05-24T03:50:52;6.20;;;5.30;;
78916;SDS011;68315;48.608;11.436;2023-05-24T03:53:17;7.82;;;4.65;;
78916;SDS011;68315;48.608;11.436;2023-05-24T03:55:42;6.65;;;4.78;;
78916;SDS011;68315;48.608;11.436;2023-05-24T03:58:07;6.70;;;4.57;;
78916;SDS011;68315;48.608;11.436;2023-05-24T04:00:33;7.97;;;5.57;;
78916;SDS011;68315;48.608;11.436;2023-05-24T04:02:58;8.07;;;5.47;;
78916;SDS011;68315;48.608;11.436;2023-05-24T04:05:24;6.47;;;5.15;;
78916;SDS011;68315;48.608;11.436;2023-05-24T04:07:53;5.80;;;4.20;;
78916;SDS011;68315;48.608;11.436;2023-05-24T04:10:18;5.97;;;4.15;;
78916;SDS011;68315;48.608;11.436;2023-05-24T04:12:44;4.50;;;4.07;;
78916;SDS011;68315;48.608;11.436;2023-05-24T04:15:09;8.30;;;5.35;;
78916;SDS011;68315;48.608;11.436;2023-05-24T04:17:38;7.20;;;4.47;;
78916;SDS011;68315;48.608;11.436;2023-05-24T04:20:04;5.60;;;4.57;;
78916;SDS011;68315;48.608;11.436;2023-05-24T04:22:29;6.47;;;4.47;;
78916;SDS011;68315;48.608;11.436;2023-05-24T04:24:55;6.90;;;4.72;;
78916;SDS011;68315;48.608;11.436;2023-05-24T04:27:20;7.78;;;4.70;;
78916;SDS011;68315;48.608;11.436;2023-05-24T04:29:46;10.85;;;4.82;;
78916;SDS011;68315;48.608;11.436;2023-05-24T04:32:13;5.30;;;4.40;;
78916;SDS011;68315;48.608;11.436;2023-05-24T04:34:39;6.55;;;3.80;;
78916;SDS011;68315;48.608;11.436;2023-05-24T04:37:07;6.75;;;4.15;;
78916;SDS011;68315;48.608;11.436;2023-05-24T04:39:32;5.40;;;4.45;;
78916;SDS011;68315;48.608;11.436;2023-05-24T04:41:58;6.18;;;4.18;;
78916;SDS011;68315;48.608;11.436;2023-05-24T04:44:24;4.65;;;2.90;;
78916;SDS011;68315;48.608;11.436;2023-05-24T04:46:50;6.95;;;4.30;;
78916;SDS011;68315;48.608;11.436;2023-05-24T04:49:15;7.35;;;4.43;;
78916;SDS011;68315;48.608;11.436;2023-05-24T04:51:40;8.27;;;4.38;;
78916;SDS011;68315;48.608;11.436;2023-05-24T04:54:06;7.07;;;4.80;;
78916;SDS011;68315;48.608;11.436;2023-05-24T04:56:34;8.07;;;4.93;;
78916;SDS011;68315;48.608;11.436;2023-05-24T04:59:02;9.35;;;4.90;;
78916;SDS011;68315;48.608;11.436;2023-05-24T05:01:28;9.77;;;4.90;;
78916;SDS011;68315;48.608;11.436;2023-05-24T05:03:53;10.32;;;4.32;;
78916;SDS011;68315;48.608;11.436;2023-05-24T05:06:19;7.22;;;4.80;;
78916;SDS011;68315;48.608;11.436;2023-05-24T05:08:44;6.75;;;3.95;;
78916;SDS011;68315;48.608;11.436;2023-05-24T05:11:09;7.28;;;5.25;;
78916;SDS011;68315;48.608;11.436;2023-05-24T05:13:35;6.93;;;4.28;;
78916;SDS011;68315;48.608;11.436;2023-05-24T05:16:00;8.57;;;4.93;;
78916;SDS011;68315;48.608;11.436;2023-05-24T05:18:26;6.97;;;5.13;;
78916;SDS011;68315;48.608;11.436;2023-05-24T05:20:51;8.25;;;4.68;;
78916;SDS011;68315;48.608;11.436;2023-05-24T05:23:17;7.18;;;4.38;;
78916;SDS011;68315;48.608;11.436;2023-05-24T05:25:42;9.15;;;4.95;;
78916;SDS011;68315;48.608;11.436;2023-05-24T05:28:07;10.18;;;5.03;;
78916;SDS011;68315;48.608;11.436;2023-05-24T05:30:32;9.73;;;5.18;;
78916;SDS011;68315;48.608;11.436;2023-05-24T05:32:58;8.18;;;5.22;;
78916;SDS011;68315;48.608;11.436;2023-05-24T05:35:23;5.90;;;4.10;;
78916;SDS011;68315;48.608;11.436;2023-05-24T05:37:48;7.47;;;4.10;;
78916;SDS011;68315;48.608;11.436;2023-05-24T05:40:14;9.60;;;5.07;;
78916;SDS011;68315;48.608;11.436;2023-05-24T05:42:39;7.75;;;4.38;;
78916;SDS011;68315;48.608;11.436;2023-05-24T05:45:07;8.40;;;4.30;;
78916;SDS011;68315;48.608;11.436;2023-05-24T05:47:33;10.15;;;5.28;;
78916;SDS011;68315;48.608;11.436;2023-05-24T05:49:58;8.60;;;4.43;;
78916;SDS011;68315;48.608;11.436;2023-05-24T05:52:24;8.63;;;5.22;;
78916;SDS011;68315;48.608;11.436;2023-05-24T05:54:49;6.50;;;4.45;;
78916;SDS011;68315;48.608;11.436;2023-05-24T05:57:14;7.82;;;4.80;;
78916;SDS011;68315;48.608;11.436;2023-05-24T05:59:40;9.60;;;4.82;;
78916;SDS011;68315;48.608;11.436;2023-05-24T06:02:05;10.10;;;5.13;;
78916;SDS011;68315;48.608;11.436;2023-05-24T06:04:31;5.72;;;4.63;;
78916;SDS011;68315;48.608;11.436;2023-05-24T06:06:56;7.97;;;4.50;;
78916;SDS011;68315;48.608;11.436;2023-05-24T06:09:21;8.48;;;4.93;;
78916;SDS011;68315;48.608;11.436;2023-05-24T06:11:47;8.88;;;5.28;;
78916;SDS011;68315;48.608;11.436;2023-05-24T06:14:13;10.60;;;5.22;;
78916;SDS011;68315;48.608;11.436;2023-05-24T06:16:42;8.43;;;4.80;;
78916;SDS011;68315;48.608;11.436;2023-05-24T06:19:10;6.45;;;4.68;;
78916;SDS011;68315;48.608;11.436;2023-05-24T06:21:38;8.50;;;4.80;;
78916;SDS011;68315;48.608;11.436;2023-05-24T06:24:06;9.10;;;5.28;;
78916;SDS011;68315;48.608;11.436;2023-05-24T06:26:33;11.25;;;5.50;;
78916;SDS011;68315;48.608;11.436;2023-05-24T06:29:00;7.40;;;4.72;;
78916;SDS011;68315;48.608;11.436;2023-05-24T06:31:26;9.25;;;5.50;;
78916;SDS011;68315;48.608;11.436;2023-05-24T06:33:51;12.73;;;5.70;;
78916;SDS011;68315;48.608;11.436;2023-05-24T06:36:16;13.07;;;5.78;;
78916;SDS011;68315;48.608;11.436;2023-05-24T06:38:42;10.40;;;5.65;;
78916;SDS011;68315;48.608;11.436;2023-05-24T06:41:07;10.73;;;6.10;;
78916;SDS011;68315;48.608;11.436;2023-05-24T06:43:33;9.73;;;5.63;;
78916;SDS011;68315;48.608;11.436;2023-05-24T06:45:58;8.73;;;5.07;;
78916;SDS011;68315;48.608;11.436;2023-05-24T06:48:23;11.13;;;5.05;;
78916;SDS011;68315;48.608;11.436;2023-05-24T06:50:49;9.00;;;5.10;;
78916;SDS011;68315;48.608;11.436;2023-05-24T06:53:14;6.70;;;4.63;;
78916;SDS011;68315;48.608;11.436;2023-05-24T06:55:39;8.63;;;4.88;;
78916;SDS011;68315;48.608;11.436;2023-05-24T06:58:05;12.00;;;5.05;;
78916;SDS011;68315;48.608;11.436;2023-05-24T07:00:30;10.70;;;5.82;;
78916;SDS011;68315;48.608;11.436;2023-05-24T07:02:56;8.02;;;3.88;;
78916;SDS011;68315;48.608;11.436;2023-05-24T07:05:21;11.13;;;5.10;;
78916;SDS011;68315;48.608;11.436;2023-05-24T07:07:47;8.05;;;4.22;;
78916;SDS011;68315;48.608;11.436;2023-05-24T07:10:12;8.50;;;5.20;;
78916;SDS011;68315;48.608;11.436;2023-05-24T07:12:38;9.52;;;5.43;;
78916;SDS011;68315;48.608;11.436;2023-05-24T07:15:04;8.45;;;4.57;;
78916;SDS011;68315;48.608;11.436;2023-05-24T07:17:31;6.80;;;4.68;;
78916;SDS011;68315;48.608;11.436;2023-05-24T07:19:56;9.50;;;4.88;;
78916;SDS011;68315;48.608;11.436;2023-05-24T07:22:21;13.40;;;5.28;;
78916;SDS011;68315;48.608;11.436;2023-05-24T07:24:49;12.68;;;5.63;;
78916;SDS011;68315;48.608;11.436;2023-05-24T07:27:14;8.77;;;5.10;;
78916;SDS011;68315;48.608;11.436;2023-05-24T07:29:40;9.98;;;4.72;;
78916;SDS011;68315;48.608;11.436;2023-05-24T07:32:06;10.38;;;4.88;;
78916;SDS011;68315;48.608;11.436;2023-05-24T07:34:32;9.50;;;4.93;;
78916;SDS011;68315;48.608;11.436;2023-05-24T07:36:58;9.52;;;5.50;;
78916;SDS011;68315;48.608;11.436;2023-05-24T07:39:25;8.93;;;5.53;;
78916;SDS011;68315;48.608;11.436;2023-05-24T07:41:51;11.93;;;5.85;;
78916;SDS011;68315;48.608;11.436;2023-05-24T07:44:17;10.15;;;5.60;;
78916;SDS011;68315;48.608;11.436;2023-05-24T07:46:43;7.28;;;4.68;;
78916;SDS011;68315;48.608;11.436;2023-05-24T07:49:08;12.65;;;5.47;;
78916;SDS011;68315;48.608;11.436;2023-05-24T07:51:33;12.37;;;6.17;;
78916;SDS011;68315;48.608;11.436;2023-05-24T07:53:59;8.95;;;5.40;;
78916;SDS011;68315;48.608;11.436;2023-05-24T07:56:24;7.53;;;5.22;;
78916;SDS011;68315;48.608;11.436;2023-05-24T07:58:50;11.38;;;5.65;;
78916;SDS011;68315;48.608;11.436;2023-05-24T08:01:15;10.20;;;5.72;;
78916;SDS011;68315;48.608;11.436;2023-05-24T08:03:42;8.85;;;5.00;;
78916;SDS011;68315;48.608;11.436;2023-05-24T08:06:07;7.15;;;5.60;;
78916;SDS011;68315;48.608;11.436;2023-05-24T08:08:33;11.02;;;6.13;;
78916;SDS011;68315;48.608;11.436;2023-05-24T08:11:00;9.98;;;5.80;;
78916;SDS011;68315;48.608;11.436;2023-05-24T08:13:25;8.63;;;5.43;;
78916;SDS011;68315;48.608;11.436;2023-05-24T08:15:51;11.23;;;6.38;;
78916;SDS011;68315;48.608;11.436;2023-05-24T08:18:16;10.25;;;5.72;;
78916;SDS011;68315;48.608;11.436;2023-05-24T08:20:41;10.40;;;5.35;;
78916;SDS011;68315;48.608;11.436;2023-05-24T08:23:06;9.50;;;5.85;;
78916;SDS011;68315;48.608;11.436;2023-05-24T08:25:32;9.40;;;6.25;;
78916;SDS011;68315;48.608;11.436;2023-05-24T08:27:57;8.95;;;5.13;;
78916;SDS011;68315;48.608;11.436;2023-05-24T08:30:22;8.35;;;5.65;;
78916;SDS011;68315;48.608;11.436;2023-05-24T08:32:48;15.30;;;6.13;;
78916;SDS011;68315;48.608;11.436;2023-05-24T08:35:15;13.27;;;5.72;;
78916;SDS011;68315;48.608;11.436;2023-05-24T08:37:40;11.20;;;5.70;;
78916;SDS011;68315;48.608;11.436;2023-05-24T08:40:05;11.73;;;5.90;;
78916;SDS011;68315;48.608;11.436;2023-05-24T08:42:33;11.48;;;5.60;;
78916;SDS011;68315;48.608;11.436;2023-05-24T08:45:10;12.85;;;6.13;;
78916;SDS011;68315;48.608;11.436;2023-05-24T08:47:36;11.25;;;5.18;;
78916;SDS011;68315;48.608;11.436;2023-05-24T08:50:03;10.43;;;5.05;;
78916;SDS011;68315;48.608;11.436;2023-05-24T08:52:29;9.45;;;5.03;;
78916;SDS011;68315;48.608;11.436;2023-05-24T08:54:57;11.57;;;5.35;;
78916;SDS011;68315;48.608;11.436;2023-05-24T08:57:23;9.45;;;5.18;;
78916;SDS011;68315;48.608;11.436;2023-05-24T08:59:51;10.10;;;4.93;;
78916;SDS011;68315;48.608;11.436;2023-05-24T09:02:19;11.95;;;5.63;;
78916;SDS011;68315;48.608;11.436;2023-05-24T09:04:45;9.02;;;4.90;;
78916;SDS011;68315;48.608;11.436;2023-05-24T09:07:13;8.70;;;5.30;;
78916;SDS011;68315;48.608;11.436;2023-05-24T09:09:41;9.52;;;5.30;;
78916;SDS011;68315;48.608;11.436;2023-05-24T09:12:12;7.28;;;4.13;;
78916;SDS011;68315;48.608;11.436;2023-05-24T09:14:41;7.97;;;4.95;;
78916;SDS011;68315;48.608;11.436;2023-05-24T09:17:10;9.02;;;5.10;;
78916;SDS011;68315;48.608;11.436;2023-05-24T09:19:36;9.55;;;4.82;;
78916;SDS011;68315;48.608;11.436;2023-05-24T09:22:03;8.60;;;4.50;;
78916;SDS011;68315;48.608;11.436;2023-05-24T09:24:28;7.72;;;4.70;;
78916;SDS011;68315;48.608;11.436;2023-05-24T09:26:54;7.13;;;3.97;;
78916;SDS011;68315;48.608;11.436;2023-05-24T09:29:29;11.07;;;5.32;;
78916;SDS011;68315;48.608;11.436;2023-05-24T09:31:54;12.55;;;5.63;;
78916;SDS011;68315;48.608;11.436;2023-05-24T09:34:20;9.40;;;4.95;;
78916;SDS011;68315;48.608;11.436;2023-05-24T09:36:46;9.30;;;4.90;;
78916;SDS011;68315;48.608;11.436;2023-05-24T09:39:12;11.18;;;5.15;;
78916;SDS011;68315;48.608;11.436;2023-05-24T09:41:37;10.43;;;4.72;;
78916;SDS011;68315;48.608;11.436;2023-05-24T09:44:03;10.45;;;4.55;;
78916;SDS011;68315;48.608;11.436;2023-05-24T09:46:38;8.00;;;4.30;;
78916;SDS011;68315;48.608;11.436;2023-05-24T09:49:04;11.50;;;4.72;;
78916;SDS011;68315;48.608;11.436;2023-05-24T09:51:32;7.43;;;4.63;;
78916;SDS011;68315;48.608;11.436;2023-05-24T09:54:01;11.05;;;5.28;;
78916;SDS011;68315;48.608;11.436;2023-05-24T09:56:28;11.32;;;5.22;;
78916;SDS011;68315;48.608;11.436;2023-05-24T09:58:54;9.75;;;4.72;;
78916;SDS011;68315;48.608;11.436;2023-05-24T10:01:21;11.43;;;5.40;;
78916;SDS011;68315;48.608;11.436;2023-05-24T10:03:52;8.93;;;4.50;;
78916;SDS011;68315;48.608;11.436;2023-05-24T10:06:21;9.02;;;4.65;;
78916;SDS011;68315;48.608;11.436;2023-05-24T10:08:48;12.32;;;4.88;;
78916;SDS011;68315;48.608;11.436;2023-05-24T10:11:14;15.02;;;5.47;;
78916;SDS011;68315;48.608;11.436;2023-05-24T10:13:39;10.50;;;4.40;;
78916;SDS011;68315;48.608;11.436;2023-05-24T10:16:05;8.95;;;5.43;;
78916;SDS011;68315;48.608;11.436;2023-05-24T10:18:31;7.72;;;4.63;;
78916;SDS011;68315;48.608;11.436;2023-05-24T10:20:57;10.15;;;5.05;;
78916;SDS011;68315;48.608;11.436;2023-05-24T10:23:24;11.95;;;5.68;;
78916;SDS011;68315;48.608;11.436;2023-05-24T10:26:03;10.82;;;4.95;;
78916;SDS011;68315;48.608;11.436;2023-05-24T10:28:30;8.32;;;5.45;;
78916;SDS011;68315;48.608;11.436;2023-05-24T10:31:09;12.55;;;5.53;;
78916;SDS011;68315;48.608;11.436;2023-05-24T10:33:37;8.80;;;4.85;;
78916;SDS011;68315;48.608;11.436;2023-05-24T10:36:05;13.30;;;6.38;;
78916;SDS011;68315;48.608;11.436;2023-05-24T10:38:33;11.05;;;5.85;;
78916;SDS011;68315;48.608;11.436;2023-05-24T10:41:03;11.27;;;5.53;;
78916;SDS011;68315;48.608;11.436;2023-05-24T10:43:29;11.93;;;5.75;;
78916;SDS011;68315;48.608;11.436;2023-05-24T10:45:54;13.18;;;5.20;;
78916;SDS011;68315;48.608;11.436;2023-05-24T10:50:48;10.48;;;5.15;;
78916;SDS011;68315;48.608;11.436;2023-05-24T10:53:14;11.68;;;5.32;;
78916;SDS011;68315;48.608;11.436;2023-05-24T10:56:01;8.95;;;5.40;;
78916;SDS011;68315;48.608;11.436;2023-05-24T11:01:02;10.30;;;5.03;;
78916;SDS011;68315;48.608;11.436;2023-05-24T11:03:31;12.73;;;5.72;;
78916;SDS011;68315;48.608;11.436;2023-05-24T11:05:57;8.38;;;5.13;;
78916;SDS011;68315;48.608;11.436;2023-05-24T11:08:28;13.45;;;5.65;;
78916;SDS011;68315;48.608;11.436;2023-05-24T11:13:28;11.23;;;5.18;;
78916;SDS011;68315;48.608;11.436;2023-05-24T11:15:54;8.40;;;5.10;;
78916;SDS011;68315;48.608;11.436;2023-05-24T11:18:23;8.30;;;4.90;;
78916;SDS011;68315;48.608;11.436;2023-05-24T11:20:48;13.57;;;5.65;;
78916;SDS011;68315;48.608;11.436;2023-05-24T11:23:14;10.18;;;5.20;;
78916;SDS011;68315;48.608;11.436;2023-05-24T11:25:40;13.02;;;5.25;;
78916;SDS011;68315;48.608;11.436;2023-05-24T11:28:07;10.48;;;5.32;;
78916;SDS011;68315;48.608;11.436;2023-05-24T11:30:44;13.40;;;5.30;;
78916;SDS011;68315;48.608;11.436;2023-05-24T11:33:17;8.50;;;3.78;;
78916;SDS011;68315;48.608;11.436;2023-05-24T11:35:43;10.65;;;5.25;;
78916;SDS011;68315;48.608;11.436;2023-05-24T11:38:14;9.00;;;5.32;;
78916;SDS011;68315;48.608;11.436;2023-05-24T11:40:40;13.02;;;6.07;;
78916;SDS011;68315;48.608;11.436;2023-05-24T11:43:13;9.13;;;4.40;;
78916;SDS011;68315;48.608;11.436;2023-05-24T11:45:41;10.18;;;5.03;;
78916;SDS011;68315;48.608;11.436;2023-05-24T11:48:09;14.68;;;5.50;;
78916;SDS011;68315;48.608;11.436;2023-05-24T11:50:36;10.02;;;5.70;;
78916;SDS011;68315;48.608;11.436;2023-05-24T11:53:03;12.48;;;5.47;;
78916;SDS011;68315;48.608;11.436;2023-05-24T11:55:28;10.45;;;5.68;;
78916;SDS011;68315;48.608;11.436;2023-05-24T11:57:56;12.23;;;6.20;;
78916;SDS011;68315;48.608;11.436;2023-05-24T12:00:26;13.77;;;5.72;;
78916;SDS011;68315;48.608;11.436;2023-05-24T12:02:51;10.57;;;5.95;;
78916;SDS011;68315;48.608;11.436;2023-05-24T12:05:20;11.93;;;4.97;;
78916;SDS011;68315;48.608;11.436;2023-05-24T12:07:46;9.25;;;4.60;;
78916;SDS011;68315;48.608;11.436;2023-05-24T12:10:13;9.18;;;4.90;;
78916;SDS011;68315;48.608;11.436;2023-05-24T12:12:43;9.25;;;5.05;;
78916;SDS011;68315;48.608;11.436;2023-05-24T12:15:09;12.90;;;6.07;;
78916;SDS011;68315;48.608;11.436;2023-05-24T12:17:38;9.60;;;4.10;;
78916;SDS011;68315;48.608;11.436;2023-05-24T12:20:08;7.13;;;4.68;;
78916;SDS011;68315;48.608;11.436;2023-05-24T12:22:35;10.25;;;4.78;;
78916;SDS011;68315;48.608;11.436;2023-05-24T12:25:02;8.63;;;4.13;;
78916;SDS011;68315;48.608;11.436;2023-05-24T12:30:22;9.45;;;4.57;;
78916;SDS011;68315;48.608;11.436;2023-05-24T12:32:51;8.85;;;3.92;;
78916;SDS011;68315;48.608;11.436;2023-05-24T12:35:18;8.48;;;5.13;;
78916;SDS011;68315;48.608;11.436;2023-05-24T12:37:45;8.23;;;4.55;;
78916;SDS011;68315;48.608;11.436;2023-05-24T12:40:16;9.20;;;4.80;;
78916;SDS011;68315;48.608;11.436;2023-05-24T12:42:45;11.05;;;4.65;;
78916;SDS011;68315;48.608;11.436;2023-05-24T12:45:23;14.75;;;5.78;;
78916;SDS011;68315;48.608;11.436;2023-05-24T12:47:52;12.35;;;5.43;;
78916;SDS011;68315;48.608;11.436;2023-05-24T12:50:29;12.80;;;4.93;;
78916;SDS011;68315;48.608;11.436;2023-05-24T12:52:55;6.50;;;3.70;;
78916;SDS011;68315;48.608;11.436;2023-05-24T12:55:24;9.50;;;3.85;;
78916;SDS011;68315;48.608;11.436;2023-05-24T12:57:50;10.23;;;4.63;;
78916;SDS011;68315;48.608;11.436;2023-05-24T13:02:46;9.43;;;4.10;;
78916;SDS011;68315;48.608;11.436;2023-05-24T13:05:15;8.85;;;3.50;;
78916;SDS011;68315;48.608;11.436;2023-05-24T13:07:43;8.63;;;4.13;;
78916;SDS011;68315;48.608;11.436;2023-05-24T13:10:10;9.45;;;3.90;;
78916;SDS011;68315;48.608;11.436;2023-05-24T13:12:35;9.73;;;3.65;;
78916;SDS011;68315;48.608;11.436;2023-05-24T13:15:01;7.82;;;3.15;;
78916;SDS011;68315;48.608;11.436;2023-05-24T13:17:27;5.95;;;3.15;;
78916;SDS011;68315;48.608;11.436;2023-05-24T13:19:52;6.22;;;3.65;;
78916;SDS011;68315;48.608;11.436;2023-05-24T13:22:20;7.75;;;4.18;;
78916;SDS011;68315;48.608;11.436;2023-05-24T13:24:46;7.97;;;3.47;;
78916;SDS011;68315;48.608;11.436;2023-05-24T13:27:11;6.27;;;3.30;;
78916;SDS011;68315;48.608;11.436;2023-05-24T13:29:40;9.43;;;4.05;;
78916;SDS011;68315;48.608;11.436;2023-05-24T13:32:05;8.98;;;4.57;;
78916;SDS011;68315;48.608;11.436;2023-05-24T13:34:30;7.80;;;4.43;;
78916;SDS011;68315;48.608;11.436;2023-05-24T13:36:57;7.32;;;4.22;;
78916;SDS011;68315;48.608;11.436;2023-05-24T13:39:24;7.03;;;4.10;;
78916;SDS011;68315;48.608;11.436;2023-05-24T13:41:50;6.53;;;3.50;;
78916;SDS011;68315;48.608;11.436;2023-05-24T13:44:15;6.55;;;3.42;;
78916;SDS011;68315;48.608;11.436;2023-05-24T13:46:41;8.65;;;4.10;;
78916;SDS011;68315;48.608;11.436;2023-05-24T13:49:07;7.75;;;3.58;;
78916;SDS011;68315;48.608;11.436;2023-05-24T13:51:33;6.10;;;3.10;;
78916;SDS011;68315;48.608;11.436;2023-05-24T13:53:59;7.65;;;4.10;;
78916;SDS011;68315;48.608;11.436;2023-05-24T13:56:25;9.52;;;4.25;;
78916;SDS011;68315;48.608;11.436;2023-05-24T13:58:56;6.18;;;3.40;;
78916;SDS011;68315;48.608;11.436;2023-05-24T14:01:22;7.07;;;3.38;;
78916;SDS011;68315;48.608;11.436;2023-05-24T14:03:48;5.93;;;3.53;;
78916;SDS011;68315;48.608;11.436;2023-05-24T14:06:13;9.52;;;4.10;;
78916;SDS011;68315;48.608;11.436;2023-05-24T14:08:41;8.50;;;4.00;;
78916;SDS011;68315;48.608;11.436;2023-05-24T14:11:06;5.60;;;3.20;;
78916;SDS011;68315;48.608;11.436;2023-05-24T14:13:32;10.00;;;4.38;;
78916;SDS011;68315;48.608;11.436;2023-05-24T14:15:57;5.53;;;3.67;;
78916;SDS011;68315;48.608;11.436;2023-05-24T14:18:22;8.30;;;4.47;;
78916;SDS011;68315;48.608;11.436;2023-05-24T14:20:48;9.35;;;3.42;;
78916;SDS011;68315;48.608;11.436;2023-05-24T14:23:13;8.75;;;3.88;;
78916;SDS011;68315;48.608;11.436;2023-05-24T14:25:39;5.53;;;3.08;;
78916;SDS011;68315;48.608;11.436;2023-05-24T14:28:05;9.02;;;3.85;;
78916;SDS011;68315;48.608;11.436;2023-05-24T14:30:32;9.38;;;4.18;;
78916;SDS011;68315;48.608;11.436;2023-05-24T14:32:58;10.52;;;4.32;;
78916;SDS011;68315;48.608;11.436;2023-05-24T14:35:25;8.20;;;4.50;;
78916;SDS011;68315;48.608;11.436;2023-05-24T14:37:50;8.93;;;4.70;;
78916;SDS011;68315;48.608;11.436;2023-05-24T14:40:22;5.63;;;3.47;;
78916;SDS011;68315;48.608;11.436;2023-05-24T14:42:47;9.90;;;4.38;;
78916;SDS011;68315;48.608;11.436;2023-05-24T14:45:12;9.83;;;4.40;;
78916;SDS011;68315;48.608;11.436;2023-05-24T14:47:37;7.93;;;4.30;;
78916;SDS011;68315;48.608;11.436;2023-05-24T14:50:03;9.15;;;4.18;;
78916;SDS011;68315;48.608;11.436;2023-05-24T14:52:29;9.48;;;4.32;;